createdAt,value
2019-04-14T00:00:31.912Z,41.86
2019-04-14T00:01:41.358Z,41.86
2019-04-14T00:02:51.384Z,41.77
2019-04-14T00:04:00.960Z,41.77
2019-04-14T00:05:10.546Z,41.86
2019-04-14T00:06:20.550Z,41.77
2019-04-14T00:07:29.905Z,41.96
2019-04-14T00:08:39.553Z,41.77
2019-04-14T00:09:49.850Z,41.86
2019-04-14T00:10:59.487Z,41.96
2019-04-14T00:12:10.573Z,41.86
2019-04-14T00:13:21.836Z,41.86
2019-04-14T00:14:31.616Z,41.57
2019-04-14T00:15:49.006Z,41.38
2019-04-14T00:17:02.143Z,41.48
2019-04-14T00:18:11.936Z,41.67
2019-04-14T00:19:21.830Z,41.38
2019-04-14T00:20:31.571Z,41.57
2019-04-14T00:21:41.429Z,41.48
2019-04-14T00:22:51.580Z,41.77
2019-04-14T00:24:01.099Z,41.96
2019-04-14T00:25:10.882Z,41.57
2019-04-14T00:26:20.855Z,41.77
2019-04-14T00:27:30.345Z,41.67
2019-04-14T00:28:40.751Z,41.86
2019-04-14T00:29:50.373Z,41.67
2019-04-14T00:30:59.922Z,41.77
2019-04-14T00:32:09.639Z,41.77
2019-04-14T00:33:19.278Z,41.77
2019-04-14T00:34:29.041Z,41.67
2019-04-14T00:35:38.683Z,41.77
2019-04-14T00:36:48.246Z,41.96
2019-04-14T00:38:00.660Z,41.96
2019-04-14T00:39:11.838Z,41.67
2019-04-14T00:40:21.640Z,41.96
2019-04-14T00:41:53.736Z,41.77
2019-04-14T00:43:11.447Z,41.96
2019-04-14T00:44:21.120Z,41.77
2019-04-14T00:45:48.174Z,41.77
2019-04-14T00:47:07.230Z,41.67
2019-04-14T00:48:22.561Z,41.77
2019-04-14T00:49:33.376Z,41.86
2019-04-14T00:50:43.442Z,41.86
2019-04-14T00:51:53.247Z,41.48
2019-04-14T00:53:05.864Z,41.57
2019-04-14T00:54:15.485Z,41.67
2019-04-14T00:55:25.001Z,41.57
2019-04-14T00:56:34.492Z,41.67
2019-04-14T00:57:44.196Z,41.96
2019-04-14T00:58:54.309Z,41.86
2019-04-14T01:00:04.039Z,41.86
2019-04-14T01:01:13.454Z,41.86
2019-04-14T01:02:23.330Z,41.57
2019-04-14T01:03:33.210Z,41.48
2019-04-14T01:04:44.867Z,41.86
2019-04-14T01:05:54.879Z,41.77
2019-04-14T01:07:04.453Z,41.57
2019-04-14T01:08:14.254Z,41.67
2019-04-14T01:09:32.750Z,41.86
2019-04-14T01:10:43.357Z,41.67
2019-04-14T01:11:53.522Z,41.67
2019-04-14T01:13:02.832Z,41.77
2019-04-14T01:14:19.177Z,41.77
2019-04-14T01:15:29.238Z,41.77
2019-04-14T01:17:11.342Z,41.77
2019-04-14T01:18:21.344Z,41.67
2019-04-14T01:19:31.209Z,41.57
2019-04-14T01:20:40.744Z,41.67
2019-04-14T01:21:50.371Z,41.86
2019-04-14T01:22:59.870Z,41.77
2019-04-14T01:24:09.739Z,41.96
2019-04-14T01:25:19.418Z,41.77
2019-04-14T01:26:28.969Z,41.67
2019-04-14T01:27:38.555Z,41.67
2019-04-14T01:28:48.435Z,41.77
2019-04-14T01:29:58.220Z,41.77
2019-04-14T01:31:07.816Z,41.57
2019-04-14T01:32:17.679Z,41.86
2019-04-14T01:33:27.319Z,41.86
2019-04-14T01:34:37.108Z,41.86
2019-04-14T01:35:46.756Z,41.77
2019-04-14T01:36:56.296Z,41.77
2019-04-14T01:38:06.301Z,41.77
2019-04-14T01:39:17.695Z,41.77
2019-04-14T01:40:27.144Z,41.67
2019-04-14T01:41:36.906Z,41.77
2019-04-14T01:42:46.706Z,41.77
2019-04-14T01:43:56.173Z,41.86
2019-04-14T01:45:05.881Z,41.86
2019-04-14T01:46:27.770Z,41.48
2019-04-14T01:47:42.186Z,41.77
2019-04-14T01:48:51.933Z,41.67
2019-04-14T01:50:01.878Z,41.67
2019-04-14T01:51:11.739Z,41.67
2019-04-14T01:52:21.165Z,41.57
2019-04-14T01:53:31.739Z,41.67
2019-04-14T01:54:41.333Z,41.96
2019-04-14T01:55:52.785Z,41.86
2019-04-14T01:57:02.519Z,41.77
2019-04-14T01:58:12.320Z,41.57
2019-04-14T01:59:22.052Z,41.96
2019-04-14T02:00:31.652Z,41.77
2019-04-14T02:01:41.461Z,41.86
2019-04-14T02:02:53.169Z,41.96
2019-04-14T02:04:03.153Z,41.57
2019-04-14T02:05:12.584Z,41.67
2019-04-14T02:06:22.684Z,41.67
2019-04-14T02:07:32.260Z,41.38
2019-04-14T02:08:41.598Z,41.57
2019-04-14T02:09:51.174Z,41.67
2019-04-14T02:11:01.212Z,41.86
2019-04-14T02:12:10.740Z,41.57
2019-04-14T02:13:20.685Z,41.86
2019-04-14T02:14:30.171Z,41.77
2019-04-14T02:15:39.678Z,41.67
2019-04-14T02:16:58.755Z,41.67
2019-04-14T02:18:14.627Z,41.67
2019-04-14T02:19:26.459Z,41.57
2019-04-14T02:20:36.196Z,41.86
2019-04-14T02:21:47.918Z,41.77
2019-04-14T02:22:59.636Z,41.86
2019-04-14T02:24:09.319Z,41.86
2019-04-14T02:25:21.357Z,41.86
2019-04-14T02:26:31.165Z,41.57
2019-04-14T02:27:42.980Z,41.57
2019-04-14T02:28:52.939Z,41.38
2019-04-14T02:30:03.793Z,41.77
2019-04-14T02:32:40.688Z,41.77
2019-04-14T02:44:43.388Z,41.67
2019-04-14T02:49:01.953Z,41.67
2019-04-14T02:53:00.336Z,41.77
2019-04-14T02:56:43.107Z,41.57
2019-04-14T03:00:57.980Z,41.67
2019-04-14T03:09:41.298Z,41.67
2019-04-14T03:17:36.594Z,41.67
2019-04-14T03:25:33.121Z,41.38
2019-04-14T03:29:34.532Z,41.48
2019-04-14T03:35:34.677Z,41.67
2019-04-14T03:40:25.374Z,41.38
2019-04-14T03:44:16.479Z,41.77
2019-04-14T03:48:57.769Z,41.38
2019-04-14T03:52:37.339Z,41.28
2019-04-14T03:55:45.155Z,41.38
2019-04-14T03:57:17.225Z,41.28
2019-04-14T03:58:27.162Z,41.57
2019-04-14T03:59:36.815Z,41.38
2019-04-14T04:00:46.593Z,41.57
2019-04-14T04:01:59.120Z,41.57
2019-04-14T04:03:08.581Z,41.38
2019-04-14T04:04:18.636Z,41.67
2019-04-14T04:05:28.227Z,41.48
2019-04-14T04:06:37.914Z,41.67
2019-04-14T04:07:47.582Z,41.57
2019-04-14T04:08:57.512Z,41.77
2019-04-14T04:10:07.369Z,41.57
2019-04-14T04:11:17.271Z,41.57
2019-04-14T04:12:27.276Z,41.67
2019-04-14T04:13:36.744Z,41.67
2019-04-14T04:14:46.503Z,41.48
2019-04-14T04:15:56.273Z,41.67
2019-04-14T04:17:05.874Z,41.67
2019-04-14T04:18:15.689Z,41.67
2019-04-14T04:19:25.239Z,41.67
2019-04-14T04:20:35.089Z,41.48
2019-04-14T04:21:44.548Z,41.57
2019-04-14T04:22:54.505Z,41.48
2019-04-14T04:24:04.419Z,41.38
2019-04-14T04:25:13.891Z,41.57
2019-04-14T04:26:23.452Z,41.57
2019-04-14T04:27:33.128Z,41.19
2019-04-14T04:28:42.911Z,41.19
2019-04-14T04:29:52.825Z,41.38
2019-04-14T04:31:02.486Z,41.28
2019-04-14T04:32:12.274Z,41.28
2019-04-14T04:33:22.114Z,41.28
2019-04-14T04:34:31.735Z,41.38
2019-04-14T04:35:41.552Z,41.38
2019-04-14T04:36:51.008Z,41.38
2019-04-14T04:38:00.900Z,41.38
2019-04-14T04:39:10.769Z,41.09
2019-04-14T04:40:20.426Z,41.28
2019-04-14T04:41:30.106Z,41.19
2019-04-14T04:42:39.561Z,41.28
2019-04-14T04:43:49.816Z,41.28
2019-04-14T04:44:59.691Z,41.38
2019-04-14T04:46:09.420Z,41.09
2019-04-14T04:47:18.891Z,40.9
2019-04-14T04:48:28.643Z,41.09
2019-04-14T04:49:38.414Z,41
2019-04-14T04:50:47.894Z,41
2019-04-14T04:51:57.330Z,41
2019-04-14T04:53:07.371Z,41.19
2019-04-14T04:54:16.936Z,41
2019-04-14T04:55:26.422Z,40.9
2019-04-14T04:56:36.325Z,41.19
2019-04-14T04:57:46.086Z,41.19
2019-04-14T04:58:54.989Z,41.19
2019-04-14T05:00:05.659Z,41.19
2019-04-14T05:01:16.807Z,40.81
2019-04-14T05:02:26.746Z,41.09
2019-04-14T05:03:36.404Z,40.9
2019-04-14T05:04:46.077Z,41
2019-04-14T05:05:55.814Z,41
2019-04-14T05:07:05.856Z,41
2019-04-14T05:08:15.309Z,41
2019-04-14T05:09:25.338Z,41.09
2019-04-14T05:10:35.059Z,41.09
2019-04-14T05:11:45.096Z,41.19
2019-04-14T05:13:00.837Z,41.28
2019-04-14T05:14:10.985Z,41.19
2019-04-14T05:15:20.556Z,41.19
2019-04-14T05:16:30.373Z,41.19
2019-04-14T05:17:39.511Z,41.38
2019-04-14T05:18:50.985Z,41.28
2019-04-14T05:20:16.036Z,41.28
2019-04-14T05:21:25.723Z,41.19
2019-04-14T05:22:35.779Z,41.19
2019-04-14T05:23:45.399Z,41.19
2019-04-14T05:24:55.088Z,41.09
2019-04-14T05:26:05.007Z,41.28
2019-04-14T05:27:14.946Z,41.19
2019-04-14T05:28:24.542Z,41.38
2019-04-14T05:29:34.086Z,41.19
2019-04-14T05:30:43.744Z,41.38
2019-04-14T05:31:53.642Z,41.28
2019-04-14T05:33:03.127Z,41.28
2019-04-14T05:34:12.994Z,41.09
2019-04-14T05:35:23.094Z,41.19
2019-04-14T05:36:32.777Z,41.19
2019-04-14T05:37:42.310Z,41.09
2019-04-14T05:38:51.884Z,41.28
2019-04-14T05:40:01.698Z,41.19
2019-04-14T05:41:11.515Z,41.09
2019-04-14T05:42:26.795Z,41.48
2019-04-14T05:43:54.809Z,41.57
2019-04-14T05:45:11.235Z,41.38
2019-04-14T05:46:20.817Z,41.48
2019-04-14T05:47:30.845Z,41.48
2019-04-14T05:48:40.419Z,41.48
2019-04-14T05:49:56.479Z,41.38
2019-04-14T05:51:08.919Z,41.48
2019-04-14T05:52:21.320Z,41.48
2019-04-14T05:53:30.590Z,41.48
2019-04-14T05:54:40.508Z,41.48
2019-04-14T05:55:50.673Z,41.28
2019-04-14T05:57:00.199Z,41.38
2019-04-14T05:58:10.168Z,41.38
2019-04-14T05:59:19.939Z,41.38
2019-04-14T06:00:30.055Z,41.28
2019-04-14T06:01:39.479Z,41.38
2019-04-14T06:02:49.133Z,41.19
2019-04-14T06:04:00.405Z,41.28
2019-04-14T06:05:12.976Z,41.19
2019-04-14T06:06:23.640Z,41.28
2019-04-14T06:07:33.403Z,41
2019-04-14T06:08:42.320Z,41.09
2019-04-14T06:09:51.465Z,41
2019-04-14T06:11:00.342Z,41.09
2019-04-14T06:12:09.219Z,41.19
2019-04-14T06:13:18.646Z,41
2019-04-14T06:14:28.061Z,41.19
2019-04-14T06:15:36.934Z,41.19
2019-04-14T06:16:45.812Z,41.19
2019-04-14T06:17:54.689Z,40.9
2019-04-14T06:19:03.561Z,40.9
2019-04-14T06:20:12.990Z,41.19
2019-04-14T06:21:21.862Z,41.19
2019-04-14T06:22:31.276Z,41
2019-04-14T06:23:40.149Z,41
2019-04-14T06:24:49.298Z,41.19
2019-04-14T06:25:58.769Z,41.09
2019-04-14T06:27:07.652Z,41
2019-04-14T06:28:16.810Z,40.9
2019-04-14T06:29:26.010Z,40.81
2019-04-14T06:30:34.876Z,41
2019-04-14T06:31:43.788Z,41.09
2019-04-14T06:32:52.665Z,41.09
2019-04-14T06:34:02.077Z,41.09
2019-04-14T06:35:11.251Z,41
2019-04-14T06:36:20.152Z,41.38
2019-04-14T06:37:29.295Z,41.19
2019-04-14T06:38:38.450Z,41.28
2019-04-14T06:39:47.591Z,41.19
2019-04-14T06:40:56.466Z,41.28
2019-04-14T06:42:05.609Z,41.38
2019-04-14T06:43:15.019Z,41.38
2019-04-14T06:44:24.166Z,41.19
2019-04-14T06:45:33.049Z,41.28
2019-04-14T06:46:41.971Z,41.19
2019-04-14T06:47:51.122Z,41.19
2019-04-14T06:49:00.045Z,41.38
2019-04-14T06:50:09.188Z,41.19
2019-04-14T06:51:18.640Z,41.38
2019-04-14T06:52:27.841Z,41.19
2019-04-14T06:53:37.273Z,41.19
2019-04-14T06:54:46.693Z,41.38
2019-04-14T06:55:57.607Z,41.38
2019-04-14T06:57:06.765Z,41.38
2019-04-14T06:58:16.451Z,41.28
2019-04-14T06:59:25.324Z,41.38
2019-04-14T07:00:34.196Z,41.19
2019-04-14T07:01:43.349Z,41.19
2019-04-14T07:02:52.261Z,41.09
2019-04-14T07:04:01.186Z,41.28
2019-04-14T07:05:10.601Z,41
2019-04-14T07:06:20.016Z,41
2019-04-14T07:07:28.907Z,41.09
2019-04-14T07:08:37.794Z,41.09
2019-04-14T07:09:46.973Z,40.81
2019-04-14T07:10:55.853Z,41.19
2019-04-14T07:12:05.188Z,41.09
2019-04-14T07:13:19.134Z,41
2019-04-14T07:14:34.245Z,41.09
2019-04-14T07:15:43.740Z,41.19
2019-04-14T07:16:54.012Z,40.81
2019-04-14T07:18:02.883Z,41.19
2019-04-14T07:19:14.710Z,41.09
2019-04-14T07:20:24.392Z,41.19
2019-04-14T07:21:33.856Z,41.19
2019-04-14T07:22:42.996Z,40.81
2019-04-14T07:23:52.408Z,40.81
2019-04-14T07:25:01.553Z,41.19
2019-04-14T07:26:10.720Z,41.19
2019-04-14T07:27:19.709Z,41
2019-04-14T07:28:29.722Z,41.09
2019-04-14T07:29:39.129Z,41.19
2019-04-14T07:30:48.273Z,40.81
2019-04-14T07:31:57.488Z,41.09
2019-04-14T07:33:06.682Z,41
2019-04-14T07:34:15.557Z,41
2019-04-14T07:35:24.436Z,41
2019-04-14T07:36:33.905Z,41.19
2019-04-14T07:37:42.782Z,41.09
2019-04-14T07:38:52.246Z,41
2019-04-14T07:40:01.405Z,41
2019-04-14T07:41:10.827Z,41.09
2019-04-14T07:42:19.698Z,41.02
2019-04-14T07:43:28.856Z,40.92
2019-04-14T07:44:38.264Z,41
2019-04-14T07:45:47.134Z,41.19
2019-04-14T07:46:56.010Z,41.21
2019-04-14T07:48:04.905Z,41.09
2019-04-14T07:49:13.779Z,41
2019-04-14T07:50:22.703Z,41.21
2019-04-14T07:51:31.846Z,41
2019-04-14T07:52:40.986Z,41.21
2019-04-14T07:53:50.126Z,40.83
2019-04-14T07:54:59.000Z,41.02
2019-04-14T07:56:08.464Z,41.21
2019-04-14T07:57:17.686Z,41.11
2019-04-14T07:58:26.565Z,41
2019-04-14T07:59:36.245Z,40.92
2019-04-14T08:00:45.381Z,41.11
2019-04-14T08:01:54.327Z,40.83
2019-04-14T08:03:03.548Z,40.92
2019-04-14T08:04:12.708Z,40.83
2019-04-14T08:05:21.852Z,41.11
2019-04-14T08:06:30.997Z,41.11
2019-04-14T08:07:43.180Z,40.92
2019-04-14T08:08:52.607Z,41.21
2019-04-14T08:10:01.516Z,40.92
2019-04-14T08:11:10.416Z,40.92
2019-04-14T08:12:19.287Z,40.73
2019-04-14T08:13:28.711Z,40.73
2019-04-14T08:14:37.591Z,40.73
2019-04-14T08:15:46.788Z,40.83
2019-04-14T08:16:55.930Z,41.11
2019-04-14T08:18:05.347Z,40.83
2019-04-14T08:19:14.277Z,41.02
2019-04-14T08:20:30.091Z,41.02
2019-04-14T08:21:38.964Z,41.02
2019-04-14T08:22:47.844Z,41.02
2019-04-14T08:23:57.259Z,41.02
2019-04-14T08:25:06.152Z,40.54
2019-04-14T08:26:15.840Z,41.02
2019-04-14T08:27:24.983Z,41.02
2019-04-14T08:28:33.859Z,41.02
2019-04-14T08:29:43.011Z,41.02
2019-04-14T08:30:51.946Z,41.02
2019-04-14T08:32:00.827Z,40.64
2019-04-14T08:33:09.729Z,40.83
2019-04-14T08:34:18.877Z,40.64
2019-04-14T08:35:27.753Z,41.11
2019-04-14T08:36:36.633Z,40.83
2019-04-14T08:37:45.830Z,40.64
2019-04-14T08:38:54.717Z,40.73
2019-04-14T08:40:04.408Z,40.73
2019-04-14T08:41:13.621Z,40.83
2019-04-14T08:42:22.568Z,40.83
2019-04-14T08:43:31.438Z,41.02
2019-04-14T08:44:42.110Z,40.64
2019-04-14T08:45:51.066Z,41.02
2019-04-14T08:46:59.935Z,41.11
2019-04-14T08:48:08.865Z,41.02
2019-04-14T08:49:18.011Z,40.54
2019-04-14T08:50:38.678Z,40.92
2019-04-14T08:51:47.849Z,41.11
2019-04-14T08:52:57.011Z,41.11
2019-04-14T08:54:05.932Z,40.73
2019-04-14T08:55:15.090Z,40.64
2019-04-14T08:56:23.977Z,41.11
2019-04-14T08:57:33.654Z,41.11
2019-04-14T08:58:42.795Z,41.02
2019-04-14T08:59:51.997Z,41.02
2019-04-14T09:01:01.146Z,41.02
2019-04-14T09:02:10.298Z,41.02
2019-04-14T09:03:19.440Z,41.11
2019-04-14T09:04:28.730Z,41.02
2019-04-14T09:05:37.930Z,41.02
2019-04-14T09:06:47.341Z,41.21
2019-04-14T09:07:56.219Z,41.21
2019-04-14T09:09:07.305Z,41.11
2019-04-14T09:10:16.346Z,41.02
2019-04-14T09:11:25.226Z,41.11
2019-04-14T09:12:34.097Z,41.21
2019-04-14T09:13:43.243Z,41.21
2019-04-14T09:14:59.376Z,41.02
2019-04-14T09:16:08.243Z,41.11
2019-04-14T09:17:17.163Z,41.11
2019-04-14T09:18:26.578Z,41.02
2019-04-14T09:19:35.457Z,40.92
2019-04-14T09:20:54.706Z,41.21
2019-04-14T09:22:04.144Z,41.11
2019-04-14T09:23:13.339Z,41.21
2019-04-14T09:24:22.481Z,40.83
2019-04-14T09:25:31.628Z,41.02
2019-04-14T09:26:40.770Z,41.21
2019-04-14T09:27:49.648Z,41.21
2019-04-14T09:28:58.568Z,41.21
2019-04-14T09:30:07.444Z,41.21
2019-04-14T09:31:17.141Z,41.31
2019-04-14T09:32:26.332Z,41.02
2019-04-14T09:33:35.269Z,40.83
2019-04-14T09:34:44.697Z,41.02
2019-04-14T09:35:53.835Z,41.02
2019-04-14T09:37:03.269Z,40.83
2019-04-14T09:38:14.881Z,41.11
2019-04-14T09:39:23.777Z,41.02
2019-04-14T09:40:32.931Z,40.83
2019-04-14T09:41:42.091Z,41.21
2019-04-14T09:42:50.976Z,41.11
2019-04-14T09:44:02.272Z,40.83
2019-04-14T09:45:11.419Z,41.11
2019-04-14T09:46:20.429Z,40.84
2019-04-14T09:47:30.144Z,40.83
2019-04-14T09:48:39.306Z,41.02
2019-04-14T09:49:49.692Z,40.83
2019-04-14T09:51:06.911Z,41.02
2019-04-14T09:52:15.837Z,40.83
2019-04-14T09:53:24.978Z,41.02
2019-04-14T09:54:33.857Z,40.83
2019-04-14T09:55:43.274Z,41.11
2019-04-14T09:56:52.954Z,41.11
2019-04-14T09:58:02.424Z,40.92
2019-04-14T09:59:11.317Z,40.83
2019-04-14T10:00:20.635Z,41.02
2019-04-14T10:01:30.086Z,41.21
2019-04-14T10:02:39.247Z,41.21
2019-04-14T10:03:48.662Z,41.21
2019-04-14T10:04:58.405Z,41.02
2019-04-14T10:06:08.001Z,40.92
2019-04-14T10:07:17.253Z,41.04
2019-04-14T10:08:26.350Z,41.02
2019-04-14T10:09:35.518Z,41.23
2019-04-14T10:10:45.400Z,40.94
2019-04-14T10:11:58.346Z,41.21
2019-04-14T10:13:07.518Z,40.92
2019-04-14T10:14:16.390Z,41.11
2019-04-14T10:15:25.577Z,41.21
2019-04-14T10:16:34.452Z,41.11
2019-04-14T10:17:43.866Z,40.92
2019-04-14T10:18:53.016Z,41.21
2019-04-14T10:20:01.889Z,40.83
2019-04-14T10:21:19.912Z,41.21
2019-04-14T10:22:36.243Z,41.04
2019-04-14T10:23:45.118Z,41.02
2019-04-14T10:24:53.992Z,41.21
2019-04-14T10:26:03.683Z,41.21
2019-04-14T10:27:12.556Z,41.11
2019-04-14T10:28:21.697Z,41.23
2019-04-14T10:29:30.836Z,41.02
2019-04-14T10:30:40.004Z,40.92
2019-04-14T10:31:49.249Z,41.04
2019-04-14T10:32:58.388Z,41.04
2019-04-14T10:34:09.797Z,41.11
2019-04-14T10:35:19.383Z,41.02
2019-04-14T10:36:28.541Z,41.11
2019-04-14T10:37:37.737Z,41.11
2019-04-14T10:38:47.161Z,41.02
2019-04-14T10:39:56.308Z,41.02
2019-04-14T10:41:08.434Z,41.02
2019-04-14T10:42:17.580Z,41.02
2019-04-14T10:43:26.725Z,41.02
2019-04-14T10:44:35.655Z,41.02
2019-04-14T10:45:45.355Z,41.11
2019-04-14T10:46:54.278Z,41.04
2019-04-14T10:48:03.421Z,41.33
2019-04-14T10:49:12.311Z,41.13
2019-04-14T10:50:32.781Z,41.04
2019-04-14T10:51:42.199Z,41.13
2019-04-14T10:52:51.086Z,40.94
2019-04-14T10:53:59.961Z,41.21
2019-04-14T10:55:08.916Z,41.04
2019-04-14T10:56:18.064Z,41.02
2019-04-14T10:57:27.484Z,40.92
2019-04-14T10:58:36.392Z,41.11
2019-04-14T10:59:45.263Z,40.92
2019-04-14T11:00:54.463Z,41.13
2019-04-14T11:02:03.337Z,41.11
2019-04-14T11:03:12.766Z,41.13
2019-04-14T11:04:21.908Z,41.04
2019-04-14T11:05:31.053Z,41.04
2019-04-14T11:06:39.921Z,41.23
2019-04-14T11:07:49.066Z,41.02
2019-04-14T11:08:58.479Z,41.21
2019-04-14T11:10:07.628Z,41.02
2019-04-14T11:11:17.039Z,40.94
2019-04-14T11:12:26.203Z,41.02
2019-04-14T11:13:35.352Z,40.92
2019-04-14T11:14:44.237Z,41.02
2019-04-14T11:15:53.110Z,40.94
2019-04-14T11:17:02.801Z,41.31
2019-04-14T11:18:11.674Z,41.21
2019-04-14T11:19:20.587Z,41.31
2019-04-14T11:20:29.733Z,41.11
2019-04-14T11:21:45.165Z,41.02
2019-04-14T11:23:05.217Z,41.04
2019-04-14T11:24:14.365Z,41.04
2019-04-14T11:25:23.238Z,41.11
2019-04-14T11:26:32.385Z,41.02
2019-04-14T11:27:41.275Z,41.11
2019-04-14T11:28:50.475Z,41.13
2019-04-14T11:29:59.390Z,41.04
2019-04-14T11:31:08.549Z,41.02
2019-04-14T11:32:17.429Z,41.31
2019-04-14T11:33:26.569Z,41.04
2019-04-14T11:34:36.251Z,41.23
2019-04-14T11:35:45.397Z,41.21
2019-04-14T11:36:54.301Z,41.33
2019-04-14T11:38:03.474Z,41.42
2019-04-14T11:39:12.346Z,41.11
2019-04-14T11:40:21.231Z,41.13
2019-04-14T11:41:30.131Z,41.02
2019-04-14T11:42:51.560Z,41.21
2019-04-14T11:44:00.991Z,41.13
2019-04-14T11:45:10.782Z,41.23
2019-04-14T11:46:19.938Z,40.94
2019-04-14T11:47:28.811Z,41.21
2019-04-14T11:48:37.960Z,40.94
2019-04-14T11:49:46.852Z,41.21
2019-04-14T11:50:55.725Z,41.23
2019-04-14T11:52:04.948Z,41.23
2019-04-14T11:53:14.099Z,40.92
2019-04-14T11:54:22.992Z,41.23
2019-04-14T11:55:32.142Z,40.94
2019-04-14T11:56:41.277Z,41.04
2019-04-14T11:57:50.213Z,40.94
2019-04-14T11:58:59.127Z,41.23
2019-04-14T12:00:08.300Z,41.42
2019-04-14T12:01:17.195Z,41.23
2019-04-14T12:02:26.618Z,41.23
2019-04-14T12:03:35.585Z,41.42
2019-04-14T12:04:44.807Z,41.23
2019-04-14T12:05:54.024Z,41.33
2019-04-14T12:07:03.171Z,41.23
2019-04-14T12:08:12.602Z,41.23
2019-04-14T12:09:21.791Z,41.13
2019-04-14T12:10:30.677Z,41.42
2019-04-14T12:11:39.548Z,41.42
2019-04-14T12:12:48.434Z,41.23
2019-04-14T12:13:57.608Z,41.42
2019-04-14T12:15:15.813Z,41.42
2019-04-14T12:16:25.455Z,41.42
2019-04-14T12:17:34.329Z,41.52
2019-04-14T12:18:43.479Z,41.31
2019-04-14T12:19:52.900Z,41.52
2019-04-14T12:21:02.371Z,41.23
2019-04-14T12:22:11.781Z,41.4
2019-04-14T12:23:20.930Z,41.23
2019-04-14T12:24:29.811Z,41.4
2019-04-14T12:25:38.951Z,41.31
2019-04-14T12:26:47.822Z,41.33
2019-04-14T12:27:58.039Z,41.42
2019-04-14T12:29:09.584Z,41.33
2019-04-14T12:30:20.278Z,41.31
2019-04-14T12:31:30.994Z,41.42
2019-04-14T12:32:40.472Z,41.13
2019-04-14T12:33:49.917Z,41.23
2019-04-14T12:34:58.794Z,41.13
2019-04-14T12:36:07.676Z,41.33
2019-04-14T12:37:16.557Z,41.42
2019-04-14T12:38:25.432Z,41.33
2019-04-14T12:39:34.567Z,41.33
2019-04-14T12:40:44.353Z,41.33
2019-04-14T12:41:54.884Z,41.23
2019-04-14T12:43:03.761Z,41.71
2019-04-14T12:44:12.687Z,41.4
2019-04-14T12:45:22.093Z,41.31
2019-04-14T12:46:30.983Z,41.4
2019-04-14T12:47:42.698Z,41.61
2019-04-14T12:48:51.568Z,41.42
2019-04-14T12:50:00.770Z,41.42
2019-04-14T12:51:09.913Z,41.42
2019-04-14T12:52:24.018Z,41.71
2019-04-14T12:53:33.183Z,41.71
2019-04-14T12:54:42.130Z,41.6
2019-04-14T12:55:51.047Z,41.69
2019-04-14T12:56:59.961Z,41.52
2019-04-14T12:58:11.096Z,41.8
2019-04-14T12:59:22.922Z,41.61
2019-04-14T13:00:32.434Z,41.52
2019-04-14T13:01:41.628Z,41.71
2019-04-14T13:02:50.770Z,41.71
2019-04-14T13:03:59.935Z,41.52
2019-04-14T13:05:09.087Z,41.61
2019-04-14T13:06:18.229Z,41.71
2019-04-14T13:07:27.421Z,41.8
2019-04-14T13:08:39.250Z,41.71
2019-04-14T13:09:48.396Z,41.8
2019-04-14T13:10:57.544Z,41.42
2019-04-14T13:12:06.688Z,41.71
2019-04-14T13:13:18.064Z,41.71
2019-04-14T13:14:27.472Z,41.61
2019-04-14T13:15:36.892Z,41.5
2019-04-14T13:16:46.565Z,41.8
2019-04-14T13:17:55.436Z,41.61
2019-04-14T13:19:04.629Z,41.88
2019-04-14T13:20:13.811Z,41.71
2019-04-14T13:21:22.958Z,41.71
2019-04-14T13:22:36.551Z,41.71
2019-04-14T13:23:45.699Z,41.8
2019-04-14T13:24:54.887Z,41.9
2019-04-14T13:26:03.764Z,41.9
2019-04-14T13:27:13.225Z,41.71
2019-04-14T13:28:22.118Z,41.71
2019-04-14T13:29:31.260Z,41.78
2019-04-14T13:30:40.671Z,41.71
2019-04-14T13:31:49.827Z,41.71
2019-04-14T13:32:58.983Z,41.9
2019-04-14T13:34:07.860Z,41.71
2019-04-14T13:35:16.747Z,41.71
2019-04-14T13:36:25.662Z,41.9
2019-04-14T13:37:34.820Z,41.9
2019-04-14T13:38:43.695Z,41.9
2019-04-14T13:39:52.573Z,41.71
2019-04-14T13:41:01.739Z,41.8
2019-04-14T13:42:10.937Z,41.71
2019-04-14T13:43:19.813Z,41.8
2019-04-14T13:44:28.715Z,41.61
2019-04-14T13:45:37.584Z,41.69
2019-04-14T13:46:46.459Z,41.8
2019-04-14T13:47:56.135Z,41.71
2019-04-14T13:49:05.282Z,41.8
2019-04-14T13:50:14.419Z,41.8
2019-04-14T13:51:23.567Z,41.9
2019-04-14T13:52:45.663Z,41.6
2019-04-14T13:53:55.725Z,41.61
2019-04-14T13:55:04.867Z,41.61
2019-04-14T13:56:13.736Z,41.6
2019-04-14T13:57:22.937Z,42
2019-04-14T13:58:32.078Z,41.9
2019-04-14T13:59:46.067Z,41.71
2019-04-14T14:00:55.543Z,41.78
2019-04-14T14:02:04.433Z,41.69
2019-04-14T14:03:13.308Z,41.78
2019-04-14T14:04:22.189Z,41.71
2019-04-14T14:05:31.131Z,41.71
2019-04-14T14:06:40.545Z,41.9
2019-04-14T14:07:49.695Z,41.8
2019-04-14T14:08:59.138Z,41.8
2019-04-14T14:10:08.017Z,41.61
2019-04-14T14:11:17.478Z,41.78
2019-04-14T14:12:26.373Z,41.9
2019-04-14T14:13:35.513Z,41.78
2019-04-14T14:14:44.389Z,41.69
2019-04-14T14:15:53.536Z,41.5
2019-04-14T14:17:02.421Z,41.6
2019-04-14T14:18:11.307Z,42
2019-04-14T14:19:20.731Z,41.61
2019-04-14T14:20:30.156Z,41.61
2019-04-14T14:21:39.308Z,41.61
2019-04-14T14:23:01.102Z,41.9
2019-04-14T14:24:10.317Z,41.4
2019-04-14T14:25:19.737Z,41.88
2019-04-14T14:26:28.610Z,41.9
2019-04-14T14:27:38.026Z,41.88
2019-04-14T14:28:47.181Z,41.6
2019-04-14T14:29:56.050Z,41.6
2019-04-14T14:31:04.932Z,41.9
2019-04-14T14:32:14.085Z,41.61
2019-04-14T14:33:23.234Z,41.9
2019-04-14T14:34:32.150Z,41.8
2019-04-14T14:35:41.035Z,41.9
2019-04-14T14:36:49.920Z,41.8
2019-04-14T14:37:59.066Z,41.52
2019-04-14T14:39:07.944Z,41.42
2019-04-14T14:40:17.135Z,41.88
2019-04-14T14:41:26.552Z,41.52
2019-04-14T14:42:35.478Z,41.61
2019-04-14T14:43:44.360Z,41.6
2019-04-14T14:44:53.511Z,41.78
2019-04-14T14:46:02.977Z,41.42
2019-04-14T14:47:12.147Z,41.61
2019-04-14T14:48:21.285Z,41.6
2019-04-14T14:49:30.160Z,41.61
2019-04-14T14:50:39.036Z,41.8
2019-04-14T14:51:47.918Z,41.8
2019-04-14T14:52:57.074Z,42
2019-04-14T14:54:18.581Z,41.71
2019-04-14T14:55:27.506Z,41.71
2019-04-14T14:56:36.397Z,42
2019-04-14T14:57:45.268Z,41.97
2019-04-14T14:58:54.152Z,41.71
2019-04-14T15:00:03.579Z,41.9
2019-04-14T15:01:12.450Z,41.8
2019-04-14T15:02:21.657Z,41.88
2019-04-14T15:03:31.066Z,41.71
2019-04-14T15:04:40.213Z,42.1
2019-04-14T15:05:49.084Z,41.8
2019-04-14T15:06:58.233Z,42.1
2019-04-14T15:08:07.650Z,42.07
2019-04-14T15:09:16.525Z,42.1
2019-04-14T15:10:25.414Z,42.19
2019-04-14T15:11:35.100Z,42
2019-04-14T15:12:44.511Z,42.07
2019-04-14T15:13:53.392Z,42
2019-04-14T15:15:02.256Z,42
2019-04-14T15:16:11.397Z,41.97
2019-04-14T15:17:20.547Z,42
2019-04-14T15:18:30.034Z,42.07
2019-04-14T15:19:38.911Z,41.97
2019-04-14T15:20:48.330Z,41.9
2019-04-14T15:21:57.749Z,42
2019-04-14T15:23:06.895Z,41.97
2019-04-14T15:24:28.768Z,42.07
2019-04-14T15:25:37.912Z,42.27
2019-04-14T15:26:46.843Z,42.07
2019-04-14T15:27:55.986Z,42.07
2019-04-14T15:29:05.133Z,42.1
2019-04-14T15:30:14.006Z,41.69
2019-04-14T15:31:23.421Z,42.29
2019-04-14T15:32:32.402Z,41.97
2019-04-14T15:33:41.283Z,41.97
2019-04-14T15:34:50.152Z,42
2019-04-14T15:35:59.296Z,42.1
2019-04-14T15:37:08.439Z,41.97
2019-04-14T15:38:17.634Z,42
2019-04-14T15:39:26.513Z,42.1
2019-04-14T15:40:35.394Z,41.88
2019-04-14T15:41:44.599Z,42.07
2019-04-14T15:42:53.747Z,41.88
2019-04-14T15:44:02.730Z,42.07
2019-04-14T15:45:13.932Z,41.97
2019-04-14T15:46:22.948Z,41.88
2019-04-14T15:47:31.833Z,42.07
2019-04-14T15:48:40.706Z,42.07
2019-04-14T15:49:49.641Z,42.1
2019-04-14T15:50:58.787Z,41.97
2019-04-14T15:52:07.939Z,41.97
2019-04-14T15:53:17.091Z,42
2019-04-14T15:54:27.737Z,41.97
2019-04-14T15:55:36.670Z,42.07
2019-04-14T15:56:45.835Z,42.19
2019-04-14T15:57:55.244Z,42.1
2019-04-14T15:59:04.120Z,42.1
2019-04-14T16:00:13.269Z,42.17
2019-04-14T16:01:22.455Z,42.1
2019-04-14T16:02:31.613Z,42
2019-04-14T16:03:40.772Z,42
2019-04-14T16:04:49.921Z,41.9
2019-04-14T16:05:58.790Z,42
2019-04-14T16:07:08.009Z,42.17
2019-04-14T16:08:16.890Z,42.1
2019-04-14T16:09:26.072Z,42.19
2019-04-14T16:10:34.946Z,42.27
2019-04-14T16:11:44.090Z,42.17
2019-04-14T16:12:53.231Z,42.36
2019-04-14T16:14:02.375Z,42.27
2019-04-14T16:15:11.254Z,42.36
2019-04-14T16:16:20.400Z,42.86